Time;durP1;ratioP1;P1;durP2;ratioP2;P2;SDS_P1;SDS_P2;PMS_P1;PMS_P2;Temp;Humidity;BMP_temperature;BMP_pressure;BME280_temperature;BME280_humidity;BME280_pressure;Samples;Min_cycle;Max_cycle;Signal;HPM_P1;HPM_P2
2023/02/18 00:05:05;;;;;;;1999.90;999.90;;;11.60;99.90;;;;;;6717082;88;20181;-77
2023/02/18 00:15:06;;;;;;;1999.90;999.90;;;11.70;99.90;;;;;;6714485;88;20234;-78
2023/02/18 00:25:07;;;;;;;1999.90;999.90;;;11.60;99.90;;;;;;6731045;88;21023;-77
2023/02/18 00:35:08;;;;;;;1999.90;999.90;;;11.60;99.90;;;;;;6730147;88;20189;-76
2023/02/18 00:45:08;;;;;;;1999.90;999.90;;;11.70;99.90;;;;;;6731075;88;20255;-77
2023/02/18 00:55:09;;;;;;;1999.90;999.90;;;11.60;99.90;;;;;;6731561;88;20249;-76
2023/02/18 01:05:09;;;;;;;1999.90;999.90;;;11.40;99.90;;;;;;6732463;88;20567;-77
2023/02/18 01:15:13;;;;;;;1999.90;999.90;;;11.50;99.90;;;;;;6731579;88;20202;-76
2023/02/18 01:25:14;;;;;;;1999.90;999.90;;;11.50;99.90;;;;;;6732085;88;20201;-76
2023/02/18 01:35:16;;;;;;;1999.90;999.90;;;11.50;99.90;;;;;;6731463;88;20671;-77
2023/02/18 01:45:32;;;;;;;1999.90;999.90;;;11.60;99.90;;;;;;6728517;88;20282;-77
2023/02/18 01:55:35;;;;;;;1999.90;999.90;;;11.60;99.90;;;;;;6731004;88;20661;-77
2023/02/18 02:05:35;;;;;;;1999.90;999.90;;;11.50;99.90;;;;;;6730517;88;20281;-78
2023/02/18 02:15:50;;;;;;;1999.90;999.90;;;11.40;99.90;;;;;;6729780;88;20317;-76
2023/02/18 02:26:16;;;;;;;1999.90;999.90;;;11.50;99.90;;;;;;6732201;88;20234;-76
2023/02/18 02:36:26;;;;;;;1999.90;999.90;;;11.50;99.90;;;;;;6732609;88;20165;-77
2023/02/18 02:46:37;;;;;;;1999.90;999.90;;;11.50;99.90;;;;;;6733638;88;20616;-76
2023/02/18 02:56:38;;;;;;;1999.90;999.90;;;11.50;99.90;;;;;;6744481;88;20940;-77
2023/02/18 03:07:06;;;;;;;1999.90;999.90;;;11.40;99.90;;;;;;6744265;88;20226;-77
2023/02/18 03:17:19;;;;;;;1999.90;999.90;;;11.50;99.90;;;;;;6733565;88;20641;-77
2023/02/18 03:27:28;;;;;;;1999.90;999.90;;;11.50;99.90;;;;;;6729667;88;20205;-77
2023/02/18 03:37:31;;;;;;;1999.90;999.90;;;11.60;99.90;;;;;;6732937;88;20646;-76
2023/02/18 03:47:32;;;;;;;1999.90;999.90;;;11.80;99.90;;;;;;6733196;88;20210;-77
2023/02/18 03:57:32;;;;;;;1999.90;999.90;;;11.90;99.90;;;;;;6733569;88;20228;-77
2023/02/18 04:07:33;;;;;;;1999.90;999.90;;;11.90;99.90;;;;;;6729914;88;20197;-77
2023/02/18 04:17:34;;;;;;;1999.90;999.90;;;12.00;99.90;;;;;;6730950;88;20219;-77
2023/02/18 04:27:35;;;;;;;1999.90;999.90;;;12.20;99.90;;;;;;6733031;88;20689;-77
2023/02/18 04:37:35;;;;;;;1999.90;999.90;;;12.20;99.90;;;;;;6732222;88;20172;-77
2023/02/18 04:47:36;;;;;;;1999.90;999.90;;;12.10;99.90;;;;;;6731358;88;20213;-77
2023/02/18 04:57:36;;;;;;;1999.90;999.90;;;11.90;99.90;;;;;;6732548;88;21084;-77
2023/02/18 05:07:37;;;;;;;1999.90;999.90;;;12.00;99.90;;;;;;6730239;88;20523;-76
2023/02/18 05:17:38;;;;;;;1999.90;999.90;;;12.00;99.90;;;;;;6728363;88;20319;-76
2023/02/18 05:27:38;;;;;;;1999.90;999.90;;;12.10;99.90;;;;;;6733040;88;20532;-76
2023/02/18 05:37:39;;;;;;;1999.90;999.90;;;12.10;99.90;;;;;;6732051;88;20612;-77
2023/02/18 05:47:39;;;;;;;1999.90;999.90;;;12.10;99.90;;;;;;6733641;88;20207;-77
2023/02/18 05:57:40;;;;;;;1999.90;999.90;;;12.10;99.90;;;;;;6732444;88;20833;-76
2023/02/18 06:07:41;;;;;;;1999.90;999.90;;;12.00;99.90;;;;;;6732902;88;20199;-76
2023/02/18 06:27:44;;;;;;;1999.90;999.90;;;12.00;99.90;;;;;;6747772;88;20216;-79
2023/02/18 06:37:45;;;;;;;1999.90;999.90;;;12.00;99.90;;;;;;6728570;88;20224;-80
2023/02/18 06:47:46;;;;;;;1999.90;999.90;;;11.90;99.90;;;;;;6731093;88;20197;-82
2023/02/18 06:57:46;;;;;;;1999.90;999.90;;;11.80;99.90;;;;;;6738229;88;20189;-81
2023/02/18 07:07:47;;;;;;;1999.90;999.90;;;11.90;99.90;;;;;;6735397;88;20494;-81
2023/02/18 07:17:47;;;;;;;1999.90;999.90;;;11.90;99.90;;;;;;6737902;88;20184;-82
2023/02/18 07:27:48;;;;;;;1999.90;999.90;;;11.80;99.90;;;;;;6748671;88;20193;-82
2023/02/18 07:37:49;;;;;;;1999.90;999.90;;;11.80;99.90;;;;;;6749148;88;20732;-82
2023/02/18 07:47:50;;;;;;;1999.90;999.90;;;11.80;99.90;;;;;;6748750;88;20623;-79
2023/02/18 07:57:59;;;;;;;1999.90;999.90;;;11.80;99.90;;;;;;6746808;88;20308;-77
2023/02/18 08:07:59;;;;;;;1999.90;999.90;;;11.80;99.90;;;;;;6744848;88;20189;-78
2023/02/18 08:18:00;;;;;;;1999.90;999.90;;;11.70;99.90;;;;;;6743206;88;20692;-80
2023/02/18 08:28:01;;;;;;;1999.90;999.90;;;11.80;99.90;;;;;;6747549;88;20238;-78
2023/02/18 08:38:01;;;;;;;1999.90;999.90;;;11.60;99.90;;;;;;6740589;88;20209;-79
2023/02/18 08:48:03;;;;;;;1999.90;999.90;;;11.70;99.90;;;;;;6742884;88;21060;-79
2023/02/18 08:58:04;;;;;;;1999.90;999.90;;;11.10;99.90;;;;;;6741458;88;20188;-79
2023/02/18 09:08:05;;;;;;;1999.90;999.90;;;10.60;99.90;;;;;;6750431;88;20222;-80
2023/02/18 09:18:05;;;;;;;1999.90;999.90;;;9.90;99.90;;;;;;6751355;88;20554;-80
2023/02/18 09:28:06;;;;;;;1999.90;999.90;;;9.90;99.90;;;;;;6759638;88;20200;-79
2023/02/18 09:38:09;;;;;;;1999.90;999.90;;;10.10;99.90;;;;;;6742721;88;20184;-79
2023/02/18 09:48:10;;;;;;;1999.90;999.90;;;10.20;99.90;;;;;;6744504;88;20298;-78
2023/02/18 09:58:12;;;;;;;1999.90;999.90;;;10.30;99.90;;;;;;6747002;88;20319;-79
2023/02/18 10:08:21;;;;;;;1999.90;999.90;;;10.50;99.90;;;;;;6748647;88;20273;-81
2023/02/18 10:18:27;;;;;;;1999.90;999.90;;;10.70;99.90;;;;;;6749559;88;20218;-79
2023/02/18 10:28:29;;;;;;;1999.90;999.90;;;10.80;99.90;;;;;;6746050;88;20196;-79
2023/02/18 10:38:37;;;;;;;1999.90;999.90;;;10.80;99.90;;;;;;6745014;88;20193;-79
2023/02/18 10:48:46;;;;;;;1999.90;999.90;;;11.10;99.90;;;;;;6747391;88;20172;-78
2023/02/18 10:58:47;;;;;;;1999.90;999.90;;;11.20;99.90;;;;;;6744432;88;20168;-79
2023/02/18 11:08:49;;;;;;;1999.90;999.90;;;11.40;99.90;;;;;;6746095;88;20274;-78
2023/02/18 11:18:49;;;;;;;1999.90;999.90;;;11.60;99.90;;;;;;6743077;88;20197;-78
2023/02/18 11:28:57;;;;;;;1999.90;999.90;;;11.70;99.90;;;;;;6744852;88;20243;-78
2023/02/18 11:39:03;;;;;;;1999.90;999.90;;;11.40;99.90;;;;;;6738140;88;20705;-77
2023/02/18 11:49:21;;;;;;;1999.90;999.90;;;10.90;99.90;;;;;;6740863;88;20194;-78
2023/02/18 11:59:21;;;;;;;1999.90;999.90;;;10.80;99.90;;;;;;6735908;88;20708;-77
2023/02/18 12:09:42;;;;;;;1999.90;999.90;;;10.70;99.90;;;;;;6739687;88;20193;-77
2023/02/18 12:33:27;;;;;;;1999.90;999.90;;;10.50;99.90;;;;;;6772055;87;20275;-80
2023/02/18 12:43:45;;;;;;;1999.90;999.90;;;10.40;99.90;;;;;;6756657;88;20182;-78
2023/02/18 12:53:53;;;;;;;1999.90;999.90;;;10.50;99.90;;;;;;6751843;88;20403;-77
2023/02/18 13:04:00;;;;;;;1999.90;999.90;;;10.60;99.90;;;;;;6751110;88;20224;-79
2023/02/18 13:14:23;;;;;;;1999.90;999.90;;;10.70;99.90;;;;;;6750106;88;20301;-78
2023/02/18 13:24:35;;;;;;;1999.90;999.90;;;10.70;99.90;;;;;;6745989;87;20295;-78
2023/02/18 13:34:43;;;;;;;1999.90;999.90;;;10.70;99.90;;;;;;6739725;88;20254;-78
2023/02/18 13:44:55;;;;;;;1999.90;999.90;;;10.80;99.90;;;;;;6736794;88;20292;-78
2023/02/18 13:54:56;;;;;;;1999.90;999.90;;;10.90;99.90;;;;;;6736182;88;20196;-77
2023/02/18 14:05:15;;;;;;;1999.90;999.90;;;11.10;99.90;;;;;;6737150;88;20258;-78
2023/02/18 14:15:18;;;;;;;1999.90;999.90;;;11.30;99.90;;;;;;6738850;88;20342;-79
2023/02/18 14:25:19;;;;;;;1999.90;999.90;;;11.40;99.90;;;;;;6738721;88;20185;-81
2023/02/18 14:36:12;;;;;;;1999.90;999.90;;;11.50;99.90;;;;;;6738790;88;20184;-79
2023/02/18 14:46:34;;;;;;;1999.90;999.90;;;11.70;99.90;;;;;;6705177;88;21059;-77
2023/02/18 14:56:53;;;;;;;1999.90;999.90;;;11.70;99.90;;;;;;6740253;88;20210;-80
2023/02/18 15:07:02;;;;;;;1999.90;999.90;;;11.70;99.90;;;;;;6742107;88;20194;-79
2023/02/18 15:17:05;;;;;;;1999.90;999.90;;;11.60;99.90;;;;;;6757508;88;20254;-78
2023/02/18 15:27:15;;;;;;;1999.90;999.90;;;11.60;99.90;;;;;;6756911;88;20179;-78
2023/02/18 15:37:16;;;;;;;1999.90;999.90;;;11.60;99.90;;;;;;6744474;88;20185;-78
2023/02/18 15:47:17;;;;;;;1999.90;999.90;;;11.70;99.90;;;;;;6740942;88;20342;-79
2023/02/18 15:57:21;;;;;;;1999.90;999.90;;;11.70;99.90;;;;;;6745111;88;20202;-79
2023/02/18 16:07:31;;;;;;;1999.90;999.90;;;11.70;99.90;;;;;;6743870;88;20233;-79
2023/02/18 16:17:32;;;;;;;1999.90;999.90;;;11.50;99.90;;;;;;6744822;88;20233;-79
2023/02/18 16:27:36;;;;;;;1999.90;999.90;;;11.50;99.90;;;;;;6740474;88;20188;-80
2023/02/18 16:37:37;;;;;;;1999.90;999.90;;;11.50;99.90;;;;;;6753002;88;20213;-79
2023/02/18 16:47:38;;;;;;;1999.90;999.90;;;11.40;99.90;;;;;;6760336;88;20235;-79
2023/02/18 16:57:39;;;;;;;1999.90;999.90;;;11.30;99.90;;;;;;6739382;88;20207;-78
2023/02/18 17:07:39;;;;;;;1999.90;999.90;;;11.10;99.90;;;;;;6759241;88;20206;-80
2023/02/18 17:17:40;;;;;;;1999.90;999.90;;;11.10;99.90;;;;;;6741554;88;20188;-78
2023/02/18 17:27:40;;;;;;;1999.90;999.90;;;11.00;99.90;;;;;;6741893;88;20492;-81
2023/02/18 17:37:41;;;;;;;1999.90;999.90;;;11.00;99.90;;;;;;6742385;88;20191;-80
2023/02/18 17:47:41;;;;;;;1999.90;999.90;;;11.00;99.90;;;;;;6742451;88;20560;-81
2023/02/18 17:57:43;;;;;;;1999.90;999.90;;;11.00;99.90;;;;;;6741252;88;20505;-79
2023/02/18 18:07:44;;;;;;;1999.90;999.90;;;11.00;99.90;;;;;;6741941;88;20267;-80
2023/02/18 18:17:44;;;;;;;1999.90;999.90;;;11.00;99.90;;;;;;6742303;88;20262;-79
2023/02/18 18:27:45;;;;;;;1999.90;999.90;;;11.00;99.90;;;;;;6746745;88;20218;-79
2023/02/18 18:37:46;;;;;;;1999.90;999.90;;;10.80;99.90;;;;;;6747378;88;20232;-80
2023/02/18 18:47:47;;;;;;;1999.90;999.90;;;10.90;99.90;;;;;;6746727;88;20217;-80
2023/02/18 18:57:48;;;;;;;1999.90;999.90;;;10.90;99.90;;;;;;6749902;88;20653;-78
2023/02/18 19:07:49;;;;;;;1999.90;999.90;;;10.90;99.90;;;;;;6761772;88;20660;-82
2023/02/18 19:17:52;;;;;;;1999.90;999.90;;;10.80;99.90;;;;;;6773168;88;20208;-81
2023/02/18 19:27:53;;;;;;;1999.90;999.90;;;10.80;99.90;;;;;;6766529;88;20217;-80
2023/02/18 19:37:54;;;;;;;1999.90;999.90;;;10.80;99.90;;;;;;6767267;88;20184;-80
2023/02/18 19:47:56;;;;;;;1999.90;999.90;;;10.90;99.90;;;;;;6765074;88;20740;-81
2023/02/18 19:57:57;;;;;;;1999.90;999.90;;;10.90;99.90;;;;;;6766306;88;20188;-81
2023/02/18 20:07:57;;;;;;;1999.90;999.90;;;11.00;99.90;;;;;;6765269;88;20230;-79
2023/02/18 20:17:58;;;;;;;1999.90;999.90;;;10.90;99.90;;;;;;6757670;88;20187;-82
2023/02/18 20:27:58;;;;;;;1999.90;999.90;;;10.90;99.90;;;;;;6761721;88;20220;-80
2023/02/18 20:37:59;;;;;;;1999.90;999.90;;;10.90;99.90;;;;;;6762947;88;20192;-80
2023/02/18 20:47:59;;;;;;;1999.90;999.90;;;10.80;99.90;;;;;;6748288;88;20214;-82
2023/02/18 20:58:00;;;;;;;1999.90;999.90;;;10.70;99.90;;;;;;6747909;88;20788;-80
2023/02/18 21:08:00;;;;;;;1999.90;999.90;;;10.30;99.90;;;;;;6746743;88;20628;-80
2023/02/18 21:18:01;;;;;;;1999.90;999.90;;;10.20;99.90;;;;;;6761773;88;20664;-79
2023/02/18 21:28:01;;;;;;;1999.90;999.90;;;10.10;99.90;;;;;;6755777;88;20833;-79
2023/02/18 21:38:03;;;;;;;1999.90;999.90;;;10.10;99.90;;;;;;6754609;88;20232;-76
2023/02/18 21:49:00;;;;;;;1999.90;999.90;;;10.10;99.90;;;;;;6761667;88;20205;-78
2023/02/18 21:58:27;;;;;;;1999.90;999.90;;;10.10;99.90;;;;;;6764536;88;20184;-79
2023/02/18 22:08:27;;;;;;;1999.90;999.90;;;10.20;99.90;;;;;;6757742;88;20206;-80
2023/02/18 22:18:30;;;;;;;1999.90;999.90;;;10.20;99.90;;;;;;6756333;88;20206;-79
2023/02/18 22:28:32;;;;;;;1999.90;999.90;;;10.10;99.90;;;;;;6753390;88;20192;-78
2023/02/18 22:38:34;;;;;;;1999.90;999.90;;;10.10;99.90;;;;;;6754687;88;20640;-78
2023/02/18 22:48:36;;;;;;;1999.90;999.90;;;10.10;99.90;;;;;;6753482;88;20672;-79
2023/02/18 22:58:36;;;;;;;1999.90;999.90;;;10.00;99.90;;;;;;6754622;88;20189;-79
2023/02/18 23:08:37;;;;;;;1999.90;999.90;;;9.90;99.90;;;;;;6751370;88;20169;-78
2023/02/18 23:18:38;;;;;;;1999.90;999.90;;;10.10;99.90;;;;;;6759906;87;20201;-78
2023/02/18 23:28:47;;;;;;;1999.90;999.90;;;10.00;99.90;;;;;;6757112;88;20226;-78
2023/02/18 23:38:56;;;;;;;1999.90;999.90;;;10.10;99.90;;;;;;6754366;87;20831;-79
2023/02/18 23:48:59;;;;;;;1999.90;999.90;;;10.20;99.90;;;;;;6761556;88;20204;-78
2023/02/18 23:59:01;;;;;;;1999.90;999.90;;;10.30;99.90;;;;;;6753545;88;20310;-78
